createdAt,value
2023-01-01T00:01:32.351Z,5.65
2023-01-01T00:04:04.298Z,6.44
2023-01-01T00:06:35.987Z,6.31
2023-01-01T00:09:07.803Z,5.98
2023-01-01T00:11:39.919Z,5.79
2023-01-01T00:14:12.685Z,5.66
2023-01-01T00:16:44.522Z,5.58
2023-01-01T00:19:16.350Z,6.25
2023-01-01T00:21:47.948Z,5.59
2023-01-01T00:24:19.710Z,5.52
2023-01-01T00:26:51.436Z,5.77
2023-01-01T00:29:24.166Z,5.93
2023-01-01T00:31:55.978Z,5.69
2023-01-01T00:34:27.615Z,6.05
2023-01-01T00:36:59.209Z,6.41
2023-01-01T00:39:30.833Z,6.31
2023-01-01T00:42:02.491Z,6.41
2023-01-01T00:44:34.101Z,6.53
2023-01-01T00:47:06.066Z,6.51
2023-01-01T00:49:37.693Z,6.70
2023-01-01T00:52:09.334Z,6.45
2023-01-01T00:54:40.939Z,6.55
2023-01-01T00:57:12.496Z,6.61
2023-01-01T00:59:44.309Z,6.92
2023-01-01T01:02:16.357Z,6.81
2023-01-01T01:04:48.391Z,6.91
2023-01-01T01:07:20.100Z,6.92
2023-01-01T01:09:51.696Z,6.87
2023-01-01T01:12:23.367Z,7.04
2023-01-01T01:14:55.076Z,6.88
2023-01-01T01:17:26.863Z,7.11
2023-01-01T01:19:58.599Z,6.84
2023-01-01T01:22:30.201Z,6.88
2023-01-01T01:25:01.983Z,7.34
2023-01-01T01:27:33.566Z,6.97
2023-01-01T01:30:06.041Z,6.96
2023-01-01T01:32:37.687Z,6.97
2023-01-01T01:35:10.370Z,6.30
2023-01-01T01:37:42.037Z,6.56
2023-01-01T01:40:13.983Z,6.89
2023-01-01T01:42:47.811Z,6.67
2023-01-01T01:45:19.624Z,6.55
2023-01-01T01:47:59.724Z,6.21
2023-01-01T01:50:31.380Z,6.15
2023-01-01T01:53:35.545Z,6.40
2023-01-01T01:56:13.308Z,6.01
2023-01-01T01:58:45.362Z,6.22
2023-01-01T02:01:17.377Z,5.70
2023-01-01T02:03:58.817Z,5.30
2023-01-01T02:06:32.398Z,5.59
2023-01-01T02:09:06.726Z,5.04
2023-01-01T02:11:38.299Z,4.80
2023-01-01T02:14:10.342Z,4.97
2023-01-01T02:16:57.756Z,4.72
2023-01-01T02:19:48.135Z,5.00
2023-01-01T02:23:02.200Z,4.81
2023-01-01T02:25:41.696Z,4.85
2023-01-01T02:28:31.229Z,5.07
2023-01-01T02:31:05.054Z,4.72
2023-01-01T02:33:37.539Z,5.04
2023-01-01T02:36:19.014Z,4.85
2023-01-01T02:38:55.907Z,5.05
2023-01-01T02:41:35.166Z,4.76
2023-01-01T02:46:37.548Z,4.59
2023-01-01T02:49:11.568Z,4.66
2023-01-01T02:52:09.269Z,4.55
2023-01-01T02:54:52.971Z,5.41
2023-01-01T02:57:39.673Z,4.75
2023-01-01T03:00:18.081Z,4.34
2023-01-01T03:03:11.638Z,4.43
2023-01-01T03:06:02.036Z,4.41
2023-01-01T03:09:06.068Z,4.42
2023-01-01T03:11:55.887Z,4.62
2023-01-01T03:14:38.026Z,4.13
2023-01-01T03:17:21.837Z,4.21
2023-01-01T03:19:58.714Z,4.25
2023-01-01T03:25:11.453Z,3.98
2023-01-01T03:27:59.020Z,4.10
2023-01-01T03:30:36.232Z,3.97
2023-01-01T03:33:34.617Z,3.97
2023-01-01T03:36:19.478Z,3.85
2023-01-01T03:38:58.525Z,3.99
2023-01-01T03:41:44.692Z,3.58
2023-01-01T03:44:44.287Z,3.70
2023-01-01T03:47:17.072Z,3.98
2023-01-01T03:49:49.289Z,4.01
2023-01-01T03:52:36.083Z,3.79
2023-01-01T03:55:13.863Z,3.82
2023-01-01T03:57:45.493Z,3.63
2023-01-01T04:00:21.675Z,3.46
2023-01-01T04:03:01.896Z,3.83
2023-01-01T04:05:39.524Z,3.57
2023-01-01T04:08:14.719Z,3.40
2023-01-01T04:10:56.567Z,3.64
2023-01-01T04:13:48.094Z,3.94
2023-01-01T04:16:19.972Z,3.92
2023-01-01T04:18:51.654Z,3.46
2023-01-01T04:21:23.258Z,3.75
2023-01-01T04:23:54.957Z,3.86
2023-01-01T04:26:26.904Z,3.55
2023-01-01T04:28:58.497Z,3.49
2023-01-01T04:31:30.216Z,3.50
2023-01-01T04:34:02.090Z,3.86
2023-01-01T04:36:34.290Z,3.70
2023-01-01T04:39:06.437Z,3.39
2023-01-01T04:41:38.148Z,3.66
2023-01-01T04:44:09.781Z,3.77
2023-01-01T04:46:41.594Z,3.55
2023-01-01T04:49:13.277Z,3.60
2023-01-01T04:51:45.048Z,3.56
2023-01-01T04:54:16.649Z,3.50
2023-01-01T04:56:48.345Z,3.57
2023-01-01T04:59:20.017Z,3.44
2023-01-01T05:01:52.204Z,3.61
2023-01-01T05:04:24.221Z,3.20
2023-01-01T05:06:55.881Z,3.39
2023-01-01T05:09:27.532Z,3.47
2023-01-01T05:11:59.094Z,3.50
2023-01-01T05:14:31.363Z,3.52
2023-01-01T05:17:02.986Z,3.22
2023-01-01T05:19:34.596Z,3.52
2023-01-01T05:22:10.697Z,3.54
2023-01-01T05:24:42.789Z,3.47
2023-01-01T05:27:14.374Z,3.70
2023-01-01T05:29:45.965Z,3.57
2023-01-01T05:34:48.704Z,3.46
2023-01-01T05:37:20.251Z,3.66
2023-01-01T05:39:51.827Z,3.65
2023-01-01T05:42:23.467Z,3.88
2023-01-01T05:44:55.028Z,3.65
2023-01-01T05:47:29.924Z,3.64
2023-01-01T05:52:33.376Z,3.37
2023-01-01T05:55:05.353Z,3.59
2023-01-01T05:57:36.917Z,3.43
2023-01-01T06:00:09.088Z,3.58
2023-01-01T06:02:40.949Z,3.73
2023-01-01T06:05:12.539Z,3.54
2023-01-01T06:07:48.421Z,3.50
2023-01-01T06:10:20.683Z,3.73
2023-01-01T06:12:52.331Z,3.74
2023-01-01T06:15:23.954Z,3.71
2023-01-01T06:17:55.715Z,3.57
2023-01-01T06:20:27.429Z,3.72
2023-01-01T06:22:59.144Z,3.83
2023-01-01T06:25:30.768Z,3.97
2023-01-01T06:28:02.421Z,3.58
2023-01-01T06:30:34.173Z,3.73
2023-01-01T06:33:05.908Z,3.50
2023-01-01T06:35:37.445Z,3.66
2023-01-01T06:38:09.075Z,3.56
2023-01-01T06:40:40.692Z,3.71
2023-01-01T06:43:12.285Z,3.83
2023-01-01T06:45:43.832Z,3.48
2023-01-01T06:48:15.626Z,3.57
2023-01-01T06:50:47.196Z,3.96
2023-01-01T06:53:18.871Z,4.00
2023-01-01T06:55:53.394Z,4.09
2023-01-01T06:58:28.853Z,4.04
2023-01-01T07:01:11.966Z,3.94
2023-01-01T07:03:45.423Z,3.62
2023-01-01T07:06:17.094Z,3.43
2023-01-01T07:08:49.740Z,3.57
2023-01-01T07:11:22.311Z,3.50
2023-01-01T07:13:54.686Z,3.54
2023-01-01T07:16:27.301Z,3.53
2023-01-01T07:18:58.953Z,3.43
2023-01-01T07:21:54.661Z,3.50
2023-01-01T07:24:26.299Z,3.44
2023-01-01T07:26:57.875Z,3.75
2023-01-01T07:29:29.499Z,3.44
2023-01-01T07:32:01.005Z,3.59
2023-01-01T07:34:32.626Z,3.59
2023-01-01T07:37:05.002Z,3.60
2023-01-01T07:39:36.660Z,3.33
2023-01-01T07:42:11.042Z,3.31
2023-01-01T07:44:42.921Z,3.40
2023-01-01T07:47:22.564Z,3.35
2023-01-01T07:49:54.366Z,3.35
2023-01-01T07:52:25.949Z,3.27
2023-01-01T07:54:58.853Z,3.37
2023-01-01T07:57:30.483Z,3.13
2023-01-01T08:00:02.256Z,3.04
2023-01-01T08:02:45.065Z,3.08
2023-01-01T08:05:22.613Z,3.19
2023-01-01T08:07:57.838Z,3.32
2023-01-01T08:10:29.490Z,3.51
2023-01-01T08:13:02.287Z,3.33
2023-01-01T08:15:34.607Z,3.03
2023-01-01T08:18:06.482Z,3.11
2023-01-01T08:20:38.066Z,3.42
2023-01-01T08:23:09.885Z,3.12
2023-01-01T08:25:41.554Z,3.18
2023-01-01T08:28:13.319Z,3.55
2023-01-01T08:30:45.008Z,3.52
2023-01-01T08:33:16.711Z,3.23
2023-01-01T08:35:54.001Z,3.53
2023-01-01T08:38:27.243Z,3.40
2023-01-01T08:40:59.041Z,3.52
2023-01-01T08:43:30.648Z,3.44
2023-01-01T08:46:02.283Z,3.39
2023-01-01T08:48:34.130Z,3.40
2023-01-01T08:51:06.013Z,3.33
2023-01-01T08:53:37.728Z,3.46
2023-01-01T08:56:11.624Z,3.39
2023-01-01T08:58:43.571Z,3.45
2023-01-01T09:01:15.711Z,3.31
2023-01-01T09:03:49.620Z,3.63
2023-01-01T09:06:21.351Z,3.33
2023-01-01T09:08:53.121Z,3.45
2023-01-01T09:11:27.561Z,3.57
2023-01-01T09:13:59.225Z,3.78
2023-01-01T09:16:30.859Z,4.01
2023-01-01T09:19:02.669Z,3.63
2023-01-01T09:21:34.988Z,3.66
2023-01-01T09:24:07.050Z,3.67
2023-01-01T09:26:38.891Z,3.87
2023-01-01T09:29:10.496Z,4.23
2023-01-01T09:31:42.226Z,4.12
2023-01-01T09:38:33.846Z,3.71
2023-01-01T09:41:22.793Z,3.67
2023-01-01T09:44:14.734Z,3.61
2023-01-01T09:46:46.807Z,3.75
2023-01-01T09:49:35.588Z,4.07
2023-01-01T09:52:14.508Z,3.46
2023-01-01T09:54:59.860Z,3.98
2023-01-01T09:57:32.495Z,4.18
2023-01-01T10:00:15.391Z,4.12
2023-01-01T10:02:56.085Z,4.18
2023-01-01T10:05:34.558Z,4.23
2023-01-01T10:08:23.824Z,4.14
2023-01-01T10:10:58.519Z,4.17
2023-01-01T10:13:48.084Z,4.03
2023-01-01T10:16:28.530Z,3.80
2023-01-01T10:19:16.487Z,4.12
2023-01-01T10:21:52.518Z,4.18
2023-01-01T10:24:38.452Z,4.16
2023-01-01T10:27:34.054Z,4.07
2023-01-01T10:30:26.434Z,4.03
2023-01-01T10:32:59.101Z,4.14
2023-01-01T10:35:40.967Z,3.98
2023-01-01T10:38:30.686Z,3.93
2023-01-01T10:41:20.606Z,4.10
2023-01-01T10:43:52.288Z,3.80
2023-01-01T10:46:31.560Z,3.89
2023-01-01T10:49:08.383Z,3.81
2023-01-01T10:51:49.667Z,3.74
2023-01-01T10:54:39.946Z,3.72
2023-01-01T10:57:31.484Z,3.80
2023-01-01T11:00:25.427Z,3.66
2023-01-01T11:03:26.611Z,3.75
2023-01-01T11:06:10.697Z,3.54
2023-01-01T11:08:48.933Z,3.99
2023-01-01T11:11:28.039Z,4.17
2023-01-01T11:14:02.873Z,3.80
2023-01-01T11:16:40.039Z,3.97
2023-01-01T11:19:24.899Z,3.64
2023-01-01T11:21:57.256Z,4.06
2023-01-01T11:24:35.409Z,3.77
2023-01-01T11:27:24.066Z,3.43
2023-01-01T11:30:28.563Z,3.66
2023-01-01T11:33:03.637Z,3.75
2023-01-01T11:35:50.298Z,3.90
2023-01-01T11:38:29.752Z,3.79
2023-01-01T11:41:07.164Z,3.40
2023-01-01T11:43:47.046Z,3.84
2023-01-01T11:46:24.694Z,3.59
2023-01-01T11:48:56.463Z,3.68
2023-01-01T11:51:33.803Z,3.52
2023-01-01T11:54:17.547Z,3.36
2023-01-01T11:56:55.960Z,3.60
2023-01-01T11:59:46.054Z,3.21
2023-01-01T12:02:38.231Z,3.28
2023-01-01T12:05:18.840Z,3.37
2023-01-01T12:07:52.365Z,3.41
2023-01-01T12:10:36.657Z,3.37
2023-01-01T12:13:23.050Z,3.45
2023-01-01T12:16:22.731Z,3.41
2023-01-01T12:19:07.119Z,3.30
2023-01-01T12:21:49.049Z,3.12
2023-01-01T12:24:35.614Z,3.40
2023-01-01T12:27:55.363Z,3.33
2023-01-01T12:30:38.842Z,3.24
2023-01-01T12:33:26.893Z,3.78
2023-01-01T12:36:07.655Z,3.36
2023-01-01T12:38:58.937Z,3.44
2023-01-01T12:41:30.519Z,3.47
2023-01-01T12:44:45.107Z,3.45
2023-01-01T12:47:36.751Z,3.52
2023-01-01T12:50:36.522Z,3.34
2023-01-01T12:53:29.235Z,3.09
2023-01-01T12:56:23.148Z,3.46
2023-01-01T12:59:03.688Z,3.12
2023-01-01T13:01:38.183Z,3.04
2023-01-01T13:04:20.752Z,3.11
2023-01-01T13:07:01.489Z,3.01
2023-01-01T13:09:41.052Z,3.00
2023-01-01T13:12:17.036Z,3.15
2023-01-01T13:14:49.421Z,2.72
2023-01-01T13:17:24.573Z,3.12
2023-01-01T13:20:21.393Z,2.94
2023-01-01T13:22:53.303Z,3.28
2023-01-01T13:25:25.418Z,3.17
2023-01-01T13:27:57.091Z,2.72
2023-01-01T13:30:37.849Z,2.99
2023-01-01T13:33:27.768Z,2.85
2023-01-01T13:36:24.993Z,2.71
2023-01-01T13:39:01.492Z,2.86
2023-01-01T13:41:44.116Z,2.77
2023-01-01T13:44:23.507Z,2.71
2023-01-01T13:47:01.268Z,2.63
2023-01-01T13:49:59.512Z,2.81
2023-01-01T13:52:37.162Z,2.55
2023-01-01T13:55:29.319Z,2.66
2023-01-01T13:58:38.637Z,2.57
2023-01-01T14:01:13.440Z,2.86
2023-01-01T14:03:51.639Z,2.86
2023-01-01T14:06:35.631Z,2.78
2023-01-01T14:09:13.467Z,2.90
2023-01-01T14:11:45.234Z,2.95
2023-01-01T14:14:27.505Z,3.01
2023-01-01T14:17:08.635Z,2.72
2023-01-01T14:19:42.320Z,2.90
2023-01-01T14:22:16.831Z,2.72
2023-01-01T14:24:48.625Z,3.06
2023-01-01T14:27:22.384Z,2.92
2023-01-01T14:29:55.071Z,3.14
2023-01-01T14:32:30.491Z,3.18
2023-01-01T14:35:02.714Z,3.01
2023-01-01T14:37:34.998Z,3.16
2023-01-01T14:40:15.080Z,3.05
2023-01-01T14:42:52.681Z,3.39
2023-01-01T14:45:24.950Z,3.14
2023-01-01T14:47:57.750Z,3.10
2023-01-01T14:50:34.623Z,3.01
2023-01-01T14:53:13.136Z,3.34
2023-01-01T14:55:47.958Z,3.03
2023-01-01T14:58:26.417Z,3.38
2023-01-01T15:01:22.687Z,3.44
2023-01-01T15:03:56.410Z,3.09
2023-01-01T15:06:32.801Z,3.30
2023-01-01T15:09:04.687Z,3.23
2023-01-01T15:11:36.751Z,3.25
2023-01-01T15:14:30.185Z,3.12
2023-01-01T15:17:06.281Z,3.14
2023-01-01T15:19:41.034Z,2.95
2023-01-01T15:22:32.499Z,2.91
2023-01-01T15:25:04.964Z,2.94
2023-01-01T15:27:37.248Z,3.14
2023-01-01T15:30:24.664Z,3.23
2023-01-01T15:33:09.127Z,3.03
2023-01-01T15:35:41.090Z,3.15
2023-01-01T15:38:26.447Z,3.34
2023-01-01T15:40:58.091Z,3.04
2023-01-01T15:43:30.996Z,3.15
2023-01-01T15:46:20.478Z,3.08
2023-01-01T15:48:53.307Z,2.85
2023-01-01T15:51:28.389Z,3.04
2023-01-01T15:54:03.302Z,3.10
2023-01-01T15:56:40.680Z,3.31
2023-01-01T15:59:29.040Z,3.33
2023-01-01T16:02:15.982Z,3.13
2023-01-01T16:04:50.463Z,3.34
2023-01-01T16:07:25.114Z,3.13
2023-01-01T16:09:57.961Z,3.44
2023-01-01T16:12:29.850Z,3.24
2023-01-01T16:15:01.506Z,3.30
2023-01-01T16:17:34.183Z,3.12
2023-01-01T16:20:06.498Z,3.11
2023-01-01T16:22:38.057Z,3.09
2023-01-01T16:25:22.103Z,3.02
2023-01-01T16:27:54.320Z,3.37
2023-01-01T16:30:26.284Z,3.19
2023-01-01T16:32:58.142Z,3.20
2023-01-01T16:35:29.813Z,3.02
2023-01-01T16:38:01.503Z,3.15
2023-01-01T16:40:37.914Z,3.20
2023-01-01T16:43:17.249Z,3.64
2023-01-01T16:45:48.847Z,3.30
2023-01-01T16:48:20.574Z,3.07
2023-01-01T16:50:52.322Z,3.23
2023-01-01T16:53:23.948Z,3.58
2023-01-01T16:55:55.587Z,3.06
2023-01-01T17:01:19.232Z,2.91
2023-01-01T17:03:51.249Z,3.30
2023-01-01T17:06:22.974Z,3.45
2023-01-01T17:08:54.715Z,3.38
2023-01-01T17:11:27.094Z,3.17
2023-01-01T17:13:58.707Z,3.25
2023-01-01T17:16:38.259Z,3.44
2023-01-01T17:19:15.073Z,3.24
2023-01-01T17:21:49.285Z,3.27
2023-01-01T17:24:21.493Z,3.11
2023-01-01T17:26:55.096Z,3.00
2023-01-01T17:29:26.737Z,3.40
2023-01-01T17:31:58.358Z,3.24
2023-01-01T17:34:30.047Z,2.97
2023-01-01T17:37:01.724Z,3.13
2023-01-01T17:39:33.402Z,3.28
2023-01-01T17:42:07.133Z,3.06
2023-01-01T17:44:38.967Z,3.26
2023-01-01T17:47:10.700Z,3.71
2023-01-01T17:49:42.869Z,3.48
2023-01-01T17:52:14.440Z,3.38
2023-01-01T17:54:46.025Z,3.35
2023-01-01T17:57:18.607Z,3.44
2023-01-01T17:59:50.234Z,3.59
2023-01-01T18:02:22.003Z,3.38
2023-01-01T18:04:53.796Z,3.23
2023-01-01T18:07:25.538Z,3.31
2023-01-01T18:09:57.193Z,3.46
2023-01-01T18:12:28.812Z,3.38
2023-01-01T18:15:00.419Z,3.71
2023-01-01T18:17:32.856Z,3.75
2023-01-01T18:20:06.632Z,3.63
2023-01-01T18:22:43.041Z,3.40
2023-01-01T18:25:15.142Z,3.68
2023-01-01T18:27:48.998Z,3.56
2023-01-01T18:30:26.085Z,3.94
2023-01-01T18:32:57.851Z,3.96
2023-01-01T18:35:29.480Z,4.04
2023-01-01T18:38:01.221Z,3.82
2023-01-01T18:40:38.326Z,3.82
2023-01-01T18:43:23.983Z,3.87
2023-01-01T18:45:57.327Z,3.76
2023-01-01T18:48:29.151Z,3.86
2023-01-01T18:51:00.803Z,3.93
2023-01-01T18:53:32.495Z,3.93
2023-01-01T18:56:14.811Z,4.21
2023-01-01T18:58:46.627Z,3.89
2023-01-01T19:01:22.842Z,3.79
2023-01-01T19:04:01.678Z,3.99
2023-01-01T19:06:33.897Z,3.90
2023-01-01T19:09:21.681Z,4.33
2023-01-01T19:11:54.424Z,4.37
2023-01-01T19:14:29.603Z,4.16
2023-01-01T19:17:17.923Z,4.14
2023-01-01T19:19:51.984Z,4.02
2023-01-01T19:22:31.252Z,4.02
2023-01-01T19:25:32.886Z,4.16
2023-01-01T19:28:16.845Z,4.10
2023-01-01T19:30:48.535Z,4.14
2023-01-01T19:33:20.238Z,4.16
2023-01-01T19:35:52.048Z,4.27
2023-01-01T19:38:24.198Z,4.33
2023-01-01T19:40:55.819Z,4.13
2023-01-01T19:43:27.839Z,4.20
2023-01-01T19:45:59.626Z,4.01
2023-01-01T19:48:31.649Z,4.74
2023-01-01T19:51:03.508Z,5.32
2023-01-01T19:53:35.189Z,5.31
2023-01-01T19:56:07.173Z,5.03
2023-01-01T19:58:39.949Z,5.46
2023-01-01T20:01:14.147Z,5.10
2023-01-01T20:03:55.310Z,4.74
2023-01-01T20:06:28.509Z,4.86
2023-01-01T20:09:00.398Z,4.92
2023-01-01T20:11:32.230Z,5.57
2023-01-01T20:14:04.047Z,5.98
2023-01-01T20:16:35.810Z,6.47
2023-01-01T20:19:08.010Z,7.96
2023-01-01T20:21:39.675Z,8.16
2023-01-01T20:24:11.310Z,9.01
2023-01-01T20:26:42.957Z,9.80
2023-01-01T20:29:14.597Z,9.33
2023-01-01T20:31:48.184Z,8.96
2023-01-01T20:34:20.272Z,9.23
2023-01-01T20:36:52.095Z,9.28
2023-01-01T20:39:23.994Z,8.52
2023-01-01T20:41:55.944Z,8.58
2023-01-01T20:44:27.691Z,9.46
2023-01-01T20:46:59.419Z,10.23
2023-01-01T20:49:31.053Z,11.46
2023-01-01T20:52:12.038Z,11.05
2023-01-01T20:54:43.663Z,11.22
2023-01-01T20:57:15.585Z,10.99
2023-01-01T20:59:47.134Z,10.18
2023-01-01T21:02:18.835Z,9.80
2023-01-01T21:04:50.546Z,8.51
2023-01-01T21:07:22.279Z,8.05
2023-01-01T21:09:54.424Z,7.89
2023-01-01T21:12:26.028Z,7.74
2023-01-01T21:14:58.346Z,7.04
2023-01-01T21:17:29.917Z,6.93
2023-01-01T21:20:04.298Z,7.52
2023-01-01T21:22:35.944Z,7.45
2023-01-01T21:25:49.967Z,7.02
2023-01-01T21:28:16.902Z,7.07
2023-01-01T21:30:55.483Z,7.00
2023-01-01T21:33:30.376Z,6.95
2023-01-01T21:36:33.771Z,8.66
2023-01-01T21:39:11.669Z,10.62
2023-01-01T21:41:43.244Z,10.50
2023-01-01T21:44:15.577Z,7.85
2023-01-01T21:46:47.201Z,7.65
2023-01-01T21:49:35.532Z,7.37
2023-01-01T21:52:19.389Z,6.75
2023-01-01T21:54:51.184Z,7.10
2023-01-01T21:57:24.965Z,6.67
2023-01-01T21:59:56.702Z,7.27
2023-01-01T22:02:32.891Z,7.28
2023-01-01T22:05:30.522Z,6.88
2023-01-01T22:08:23.175Z,7.17
2023-01-01T22:10:57.515Z,7.28
2023-01-01T22:13:29.157Z,6.82
2023-01-01T22:16:00.730Z,6.58
2023-01-01T22:18:39.205Z,6.63
2023-01-01T22:21:17.484Z,7.16
2023-01-01T22:23:53.010Z,7.09
2023-01-01T22:26:27.780Z,7.48
2023-01-01T22:29:15.261Z,7.10
2023-01-01T22:31:49.332Z,6.77
2023-01-01T22:34:22.516Z,6.84
2023-01-01T22:36:55.450Z,7.34
2023-01-01T22:39:34.816Z,7.41
2023-01-01T22:42:09.702Z,8.19
2023-01-01T22:44:41.721Z,7.51
2023-01-01T22:47:17.778Z,7.58
2023-01-01T22:49:51.048Z,8.11
2023-01-01T22:52:22.657Z,7.51
2023-01-01T22:54:54.385Z,7.63
2023-01-01T22:57:25.930Z,8.30
2023-01-01T22:59:58.250Z,8.64
2023-01-01T23:02:29.879Z,8.68
2023-01-01T23:05:01.568Z,8.18
2023-01-01T23:07:39.652Z,8.43
2023-01-01T23:10:14.821Z,8.32
2023-01-01T23:12:46.428Z,8.27
2023-01-01T23:15:18.216Z,8.58
2023-01-01T23:17:49.842Z,9.12
2023-01-01T23:20:22.642Z,8.77
2023-01-01T23:22:55.821Z,8.70
2023-01-01T23:25:28.136Z,8.93
2023-01-01T23:27:59.836Z,8.36
2023-01-01T23:30:32.978Z,8.30
2023-01-01T23:33:04.687Z,8.40
2023-01-01T23:35:36.958Z,8.48
2023-01-01T23:38:10.021Z,8.48
2023-01-01T23:40:41.641Z,8.46
2023-01-01T23:43:13.289Z,8.17
2023-01-01T23:45:46.123Z,7.91
2023-01-01T23:48:18.980Z,7.78
2023-01-01T23:50:50.939Z,8.21
2023-01-01T23:53:22.889Z,7.77
2023-01-01T23:55:54.643Z,7.70
2023-01-01T23:58:26.556Z,7.65
